Atlantic Clover — 3FVD6 — position and weather

sailwx.info

Track history (hours):
 
Tides and Currents Weather Stations Pressure Air Temp Water Temp Dewpoint Dewpoint Depression Visibility Wind Speed Wind Dir Waves Ship Positions

Atlantic Clover

Last reported at 2017-Sep-14 02:43 UTC. Time now 2017-Oct-19 11:29 UTC.
Position N 01°18' E 103°19'.
Warning: this ship's position is 35 days out of date.

Length 180 m; draft 8.5 m.

Type: Cargo ship. MMSI: 371263000.

Date/timePositionNaut miles runAvg speedWind from/ knotsBaromVisibWave heightAir tempDewpointWater temp
2017-Sep-14 02:43N 01°18' E 103°19'413.3
2017-Sep-14 02:24N 01°16' E 103°22'713.0
2017-Sep-14 01:53N 01°13' E 103°28'913.1
2017-Sep-14 01:12N 01°12' E 103°37'312.8
2017-Sep-14 00:57N 01°11' E 103°40'512.0
2017-Sep-14 00:30N 01°09' E 103°45'713.8
2017-Sep-13 23:59N 01°12' E 103°51'612.9
2017-Sep-13 23:29N 01°15' E 103°57'  
2017-Sep-04 05:48N 34°02' E 134°54'412.3
2017-Sep-04 05:30N 34°05' E 134°55'612.8
2017-Sep-04 05:00N 34°11' E 134°57'713.1
2017-Sep-04 04:29N 34°18' E 134°59'714.6
2017-Sep-04 03:59N 34°25' E 135°02'714.0
2017-Sep-04 03:29N 34°31' E 135°05'4 7.7
2017-Sep-04 03:00N 34°35' E 135°04'  
Track history (hours):
 
Tides and Currents Weather Stations Pressure Air Temp Water Temp Dewpoint Dewpoint Depression Visibility Wind Speed Wind Dir Waves Ship Positions

Atlantic Clover

Last reported at 2017-Sep-14 02:43 UTC. Time now 2017-Oct-19 11:29 UTC.
Position N 01°18' E 103°19'.
Warning: this ship's position is 35 days out of date.

Length 180 m; draft 8.5 m.

Type: Cargo ship. MMSI: 371263000.

Date/timePositionNaut miles runAvg speedWind from/ knotsBaromVisibWave heightAir tempDewpointWater temp
2017-Sep-14 02:43N 01°18' E 103°19'413.3
2017-Sep-14 02:24N 01°16' E 103°22'713.0
2017-Sep-14 01:53N 01°13' E 103°28'913.1
2017-Sep-14 01:12N 01°12' E 103°37'312.8
2017-Sep-14 00:57N 01°11' E 103°40'512.0
2017-Sep-14 00:30N 01°09' E 103°45'713.8
2017-Sep-13 23:59N 01°12' E 103°51'612.9
2017-Sep-13 23:29N 01°15' E 103°57'  
2017-Sep-04 05:48N 34°02' E 134°54'412.3
2017-Sep-04 05:30N 34°05' E 134°55'612.8
2017-Sep-04 05:00N 34°11' E 134°57'713.1
2017-Sep-04 04:29N 34°18' E 134°59'714.6
2017-Sep-04 03:59N 34°25' E 135°02'714.0
2017-Sep-04 03:29N 34°31' E 135°05'4 7.7
2017-Sep-04 03:00N 34°35' E 135°04'  

Dump ship's entire track history